TAF LFMN
AMD LFMN 270333Z 2703/2809 28010KT CAVOK BECMG 2704/2706 24010G20KT TEMPO 2703/2709 24020G30KT PROB30 TEMPO 2708/2711 RA BKN040TCU=
METAR LFMN
LFMN 270800Z 26011KT 9999 FEW090 10/01 Q0994 NOSIG=
LFMN 270730Z 29014KT 9999 FEW090 09/01 Q0994 NOSIG=
LFMN 270700Z 28015KT 9999 FEW090 09/01 Q0994 NOSIG=
LFMN 270630Z 28016KT CAVOK 09/02 Q0993 NOSIG=
LFMN 270600Z 26018KT CAVOK 09/01 Q0993 NOSIG=
WC LFMN
WS LFMN
WV LFMN